createdAt,value
2019-02-19T00:02:29.887Z,9.20
2019-02-19T00:05:00.632Z,9.10
2019-02-19T00:07:30.945Z,9.10
2019-02-19T00:10:01.688Z,9.00
2019-02-19T00:12:32.263Z,9.00
2019-02-19T00:15:08.374Z,8.90
2019-02-19T00:17:34.986Z,9.00
2019-02-19T00:20:05.723Z,9.00
2019-02-19T00:22:36.080Z,8.90
2019-02-19T00:25:06.591Z,8.90
2019-02-19T00:27:37.031Z,8.90
2019-02-19T00:30:08.413Z,8.80
2019-02-19T00:32:39.015Z,8.80
2019-02-19T00:35:10.128Z,8.80
2019-02-19T00:37:40.501Z,8.70
2019-02-19T00:40:11.052Z,8.70
2019-02-19T00:42:41.555Z,8.60
2019-02-19T00:45:16.676Z,8.70
2019-02-19T00:47:44.171Z,8.60
2019-02-19T00:50:14.991Z,8.60
2019-02-19T00:52:46.334Z,8.50
2019-02-19T00:55:16.698Z,8.60
2019-02-19T00:57:47.116Z,8.60
2019-02-19T01:00:20.287Z,8.60
2019-02-19T01:02:50.575Z,8.60
2019-02-19T01:05:20.919Z,8.50
2019-02-19T01:07:51.247Z,8.50
2019-02-19T01:10:22.432Z,8.50
2019-02-19T01:12:53.081Z,8.50
2019-02-19T01:15:25.490Z,8.50
2019-02-19T01:17:55.687Z,8.50
2019-02-19T01:20:26.050Z,8.40
2019-02-19T01:22:57.170Z,8.40
2019-02-19T01:25:27.643Z,8.40
2019-02-19T01:27:59.266Z,8.30
2019-02-19T01:30:29.575Z,8.20
2019-02-19T01:33:00.760Z,8.20
2019-02-19T01:35:31.196Z,8.20
2019-02-19T01:38:01.611Z,8.30
2019-02-19T01:40:32.078Z,8.20
2019-02-19T01:43:02.518Z,8.20
2019-02-19T01:45:34.444Z,8.20
2019-02-19T01:48:05.077Z,8.10
2019-02-19T01:50:35.495Z,8.10
2019-02-19T01:53:05.941Z,8.10
2019-02-19T01:55:36.420Z,8.10
2019-02-19T01:58:06.726Z,8.10
2019-02-19T02:00:37.143Z,8.00
2019-02-19T02:03:07.505Z,8.00
2019-02-19T02:05:38.238Z,8.00
2019-02-19T02:08:08.724Z,7.90
2019-02-19T02:10:39.158Z,8.00
2019-02-19T02:13:09.493Z,7.90
2019-02-19T02:15:42.761Z,7.90
2019-02-19T02:18:12.648Z,7.90
2019-02-19T02:20:43.103Z,7.90
2019-02-19T02:23:13.543Z,7.80
2019-02-19T02:25:43.887Z,7.80
2019-02-19T02:28:14.211Z,7.80
2019-02-19T02:30:44.567Z,7.80
2019-02-19T02:33:15.652Z,7.70
2019-02-19T02:35:46.071Z,7.70
2019-02-19T02:38:16.810Z,7.60
2019-02-19T02:40:47.168Z,7.60
2019-02-19T02:43:17.519Z,7.60
2019-02-19T02:45:53.350Z,7.60
2019-02-19T02:48:20.757Z,7.60
2019-02-19T02:50:51.360Z,7.50
2019-02-19T02:53:21.733Z,7.50
2019-02-19T02:55:52.096Z,7.50
2019-02-19T02:58:22.556Z,7.40
2019-02-19T03:00:52.992Z,7.40
2019-02-19T03:03:24.350Z,7.40
2019-02-19T03:06:01.968Z,7.30
2019-02-19T03:08:32.311Z,7.40
2019-02-19T03:11:02.645Z,7.30
2019-02-19T03:13:33.293Z,7.30
2019-02-19T03:16:03.769Z,7.20
2019-02-19T03:18:34.187Z,7.20
2019-02-19T03:21:04.524Z,7.20
2019-02-19T03:23:34.874Z,7.20
2019-02-19T03:26:05.379Z,7.10
2019-02-19T03:28:35.762Z,7.10
2019-02-19T03:31:07.024Z,7.10
2019-02-19T03:33:39.762Z,7.10
2019-02-19T03:36:10.101Z,7.10
2019-02-19T03:38:40.508Z,7.10
2019-02-19T03:41:10.955Z,7.00
2019-02-19T03:43:41.557Z,7.00
2019-02-19T03:46:12.668Z,6.90
2019-02-19T03:48:43.083Z,6.90
2019-02-19T03:51:13.523Z,6.90
2019-02-19T03:53:43.911Z,6.90
2019-02-19T03:56:14.426Z,6.90
2019-02-19T03:58:44.986Z,6.90
2019-02-19T04:01:15.446Z,6.90
2019-02-19T04:03:45.898Z,6.80
2019-02-19T04:06:16.392Z,6.80
2019-02-19T04:08:46.795Z,6.80
2019-02-19T04:11:18.041Z,6.70
2019-02-19T04:13:48.561Z,6.80
2019-02-19T04:16:21.237Z,6.70
2019-02-19T04:18:51.029Z,6.70
2019-02-19T04:21:21.443Z,6.70
2019-02-19T04:23:51.917Z,6.70
2019-02-19T04:26:22.491Z,6.70
2019-02-19T04:28:52.807Z,6.70
2019-02-19T04:31:23.133Z,6.70
2019-02-19T04:33:53.965Z,6.60
2019-02-19T04:36:24.241Z,6.60
2019-02-19T04:38:55.728Z,6.60
2019-02-19T04:41:26.156Z,6.60
2019-02-19T04:43:56.719Z,6.60
2019-02-19T04:46:31.422Z,6.60
2019-02-19T04:48:59.541Z,6.60
2019-02-19T04:51:29.980Z,6.60
2019-02-19T04:54:00.764Z,6.60
2019-02-19T04:56:31.083Z,6.50
2019-02-19T04:59:01.429Z,6.50
2019-02-19T05:01:31.878Z,6.50
2019-02-19T05:04:02.452Z,6.40
2019-02-19T05:06:32.862Z,6.40
2019-02-19T05:09:04.635Z,6.40
2019-02-19T05:11:36.920Z,6.40
2019-02-19T05:14:07.490Z,6.40
2019-02-19T05:16:40.769Z,6.40
2019-02-19T05:19:12.323Z,6.40
2019-02-19T05:21:44.544Z,6.30
2019-02-19T05:24:14.888Z,6.30
2019-02-19T05:26:45.227Z,6.30
2019-02-19T05:29:15.571Z,6.30
2019-02-19T05:31:46.044Z,6.30
2019-02-19T05:34:17.003Z,6.30
2019-02-19T05:36:47.420Z,6.30
2019-02-19T05:39:17.760Z,6.30
2019-02-19T05:41:48.427Z,6.30
2019-02-19T05:44:18.852Z,6.30
2019-02-19T05:46:50.205Z,6.30
2019-02-19T05:49:20.934Z,6.30
2019-02-19T05:51:51.337Z,6.20
2019-02-19T05:54:21.660Z,6.30
2019-02-19T05:56:52.008Z,6.20
2019-02-19T05:59:23.986Z,6.20
2019-02-19T06:01:54.528Z,6.20
2019-02-19T06:04:24.973Z,6.20
2019-02-19T06:06:55.351Z,6.20
2019-02-19T06:09:25.834Z,6.20
2019-02-19T06:11:56.254Z,6.20
2019-02-19T06:14:26.656Z,6.20
2019-02-19T06:16:58.780Z,6.10
2019-02-19T06:19:29.389Z,6.10
2019-02-19T06:21:59.747Z,6.10
2019-02-19T06:24:30.173Z,6.10
2019-02-19T06:27:00.636Z,6.10
2019-02-19T06:29:31.992Z,6.10
2019-02-19T06:32:02.497Z,6.10
2019-02-19T06:34:33.622Z,6.10
2019-02-19T06:37:04.077Z,6.20
2019-02-19T06:39:34.619Z,6.20
2019-02-19T06:42:05.073Z,6.20
2019-02-19T06:44:36.517Z,6.20
2019-02-19T06:47:07.227Z,6.10
2019-02-19T06:49:37.703Z,6.10
2019-02-19T06:52:08.075Z,6.10
2019-02-19T06:54:38.491Z,6.10
2019-02-19T06:57:08.949Z,6.10
2019-02-19T06:59:39.292Z,6.10
2019-02-19T07:02:42.578Z,6.10
2019-02-19T07:05:17.629Z,6.10
2019-02-19T07:07:47.935Z,6.10
2019-02-19T07:10:18.277Z,6.10
2019-02-19T07:12:50.589Z,6.10
2019-02-19T07:15:21.007Z,6.10
2019-02-19T07:17:51.484Z,6.20
2019-02-19T07:20:21.831Z,6.10
2019-02-19T07:22:52.262Z,6.20
2019-02-19T07:25:22.640Z,6.20
2019-02-19T07:27:53.067Z,6.30
2019-02-19T07:30:25.632Z,6.30
2019-02-19T07:32:56.095Z,6.30
2019-02-19T07:35:27.982Z,6.40
2019-02-19T07:37:58.415Z,6.40
2019-02-19T07:40:28.832Z,6.40
2019-02-19T07:42:59.190Z,6.40
2019-02-19T07:45:29.648Z,6.50
2019-02-19T07:47:59.993Z,6.60
2019-02-19T07:50:30.380Z,6.90
2019-02-19T07:53:01.456Z,7.30
2019-02-19T07:55:32.994Z,7.60
2019-02-19T07:58:03.730Z,7.60
2019-02-19T08:00:34.038Z,7.60
2019-02-19T08:03:05.037Z,7.70
2019-02-19T08:05:35.701Z,7.80
2019-02-19T08:08:06.142Z,7.80
2019-02-19T08:10:36.547Z,7.70
2019-02-19T08:13:07.023Z,7.70
2019-02-19T08:15:40.422Z,7.70
2019-02-19T08:18:11.108Z,7.70
2019-02-19T08:20:41.523Z,7.80
2019-02-19T08:23:12.069Z,7.80
2019-02-19T08:25:44.488Z,7.80
2019-02-19T08:28:17.470Z,7.90
2019-02-19T08:30:49.417Z,7.90
2019-02-19T08:33:19.769Z,7.90
2019-02-19T08:35:51.525Z,7.90
2019-02-19T08:38:22.535Z,7.90
2019-02-19T08:40:53.978Z,8.00
2019-02-19T08:43:24.319Z,8.10
2019-02-19T08:45:55.365Z,8.10
2019-02-19T08:48:27.380Z,8.10
2019-02-19T08:50:57.839Z,8.10
2019-02-19T08:53:28.235Z,8.20
2019-02-19T08:55:58.698Z,8.20
2019-02-19T08:58:29.059Z,8.30
2019-02-19T09:00:59.469Z,8.40
2019-02-19T09:03:29.972Z,8.40
2019-02-19T09:06:00.360Z,8.60
2019-02-19T09:08:30.803Z,8.70
2019-02-19T09:11:01.175Z,8.60
2019-02-19T09:13:34.991Z,8.60
2019-02-19T09:16:05.927Z,8.60
2019-02-19T09:18:36.301Z,8.60
2019-02-19T09:21:10.026Z,8.50
2019-02-19T09:23:42.239Z,8.50
2019-02-19T09:26:12.568Z,8.40
2019-02-19T09:28:42.963Z,8.40
2019-02-19T09:31:13.332Z,8.40
2019-02-19T09:33:43.771Z,8.40
2019-02-19T09:36:14.222Z,8.40
2019-02-19T09:38:44.543Z,8.50
2019-02-19T09:41:14.806Z,8.50
2019-02-19T09:43:47.881Z,8.60
2019-02-19T09:46:18.261Z,8.50
2019-02-19T09:48:48.674Z,8.50
2019-02-19T09:51:19.251Z,8.50
2019-02-19T09:53:50.272Z,8.60
2019-02-19T09:56:22.379Z,8.60
2019-02-19T09:58:52.715Z,8.60
2019-02-19T10:01:23.270Z,8.60
2019-02-19T10:03:55.071Z,8.70
2019-02-19T10:06:37.964Z,8.70
2019-02-19T10:09:09.562Z,8.80
2019-02-19T10:11:39.867Z,9.00
2019-02-19T10:14:11.861Z,8.90
2019-02-19T10:16:42.528Z,9.00
2019-02-19T10:19:13.001Z,9.00
2019-02-19T10:21:43.425Z,9.10
2019-02-19T10:24:13.885Z,9.10
2019-02-19T10:26:44.269Z,9.10
2019-02-19T10:29:14.639Z,9.30
2019-02-19T10:31:45.091Z,9.30
2019-02-19T10:34:15.563Z,9.30
2019-02-19T10:36:45.881Z,9.30
2019-02-19T10:39:16.214Z,9.40
2019-02-19T10:41:46.487Z,9.40
2019-02-19T10:44:16.923Z,9.40
2019-02-19T10:46:47.468Z,9.40
2019-02-19T10:49:18.417Z,9.50
2019-02-19T10:51:48.769Z,9.60
2019-02-19T10:54:19.093Z,9.60
2019-02-19T10:56:49.527Z,9.60
2019-02-19T10:59:19.997Z,9.80
2019-02-19T11:01:50.390Z,9.80
2019-02-19T11:04:20.821Z,9.60
2019-02-19T11:06:51.214Z,9.50
2019-02-19T11:09:21.581Z,9.40
2019-02-19T11:11:52.007Z,9.30
2019-02-19T11:14:22.467Z,9.30
2019-02-19T11:16:52.799Z,10.10
2019-02-19T11:19:23.150Z,10.50
2019-02-19T11:21:53.516Z,10.40
2019-02-19T11:24:23.922Z,10.10
2019-02-19T11:26:54.407Z,11.50
2019-02-19T11:29:24.795Z,11.60
2019-02-19T11:31:55.151Z,10.70
2019-02-19T11:34:25.514Z,10.50
2019-02-19T11:36:55.987Z,10.30
2019-02-19T11:39:26.409Z,10.20
2019-02-19T11:41:56.892Z,10.10
2019-02-19T11:44:27.210Z,10.10
2019-02-19T11:46:57.520Z,10.00
2019-02-19T11:49:27.897Z,10.00
2019-02-19T11:51:58.318Z,10.00
2019-02-19T11:54:29.160Z,9.90
2019-02-19T11:57:00.256Z,10.00
2019-02-19T11:59:30.733Z,10.10
2019-02-19T12:02:02.830Z,10.20
2019-02-19T12:04:33.996Z,10.00
2019-02-19T12:07:04.367Z,10.20
2019-02-19T12:09:35.440Z,10.80
2019-02-19T12:12:05.913Z,10.70
2019-02-19T12:14:36.318Z,10.40
2019-02-19T12:17:06.722Z,10.20
2019-02-19T12:19:37.122Z,10.30
2019-02-19T12:22:07.592Z,10.40
2019-02-19T12:24:38.746Z,10.40
2019-02-19T12:27:09.109Z,10.50
2019-02-19T12:29:39.509Z,10.40
2019-02-19T12:32:09.988Z,10.50
2019-02-19T12:34:40.489Z,10.50
2019-02-19T12:37:10.851Z,10.70
2019-02-19T12:39:41.215Z,10.70
2019-02-19T12:42:11.675Z,10.70
2019-02-19T12:44:42.086Z,10.70
2019-02-19T12:47:12.523Z,10.80
2019-02-19T12:49:42.873Z,11.10
2019-02-19T12:52:13.358Z,11.10
2019-02-19T12:54:43.758Z,11.00
2019-02-19T12:57:14.714Z,11.10
2019-02-19T12:59:45.155Z,11.00
2019-02-19T13:02:16.324Z,11.00
2019-02-19T13:04:46.680Z,10.70
2019-02-19T13:07:17.003Z,10.60
2019-02-19T13:09:47.910Z,10.60
2019-02-19T13:12:19.619Z,10.60
2019-02-19T13:14:51.840Z,10.60
2019-02-19T13:17:22.695Z,10.40
2019-02-19T13:19:53.014Z,10.50
2019-02-19T13:22:23.395Z,10.60
2019-02-19T13:24:53.817Z,10.60
2019-02-19T13:27:24.271Z,10.50
2019-02-19T13:29:54.719Z,10.50
2019-02-19T13:32:25.177Z,10.50
2019-02-19T13:34:55.597Z,10.50
2019-02-19T13:37:25.960Z,10.50
2019-02-19T13:39:56.384Z,10.40
2019-02-19T13:42:26.840Z,10.50
2019-02-19T13:44:57.227Z,10.50
2019-02-19T13:47:27.644Z,10.60
2019-02-19T13:49:58.067Z,10.70
2019-02-19T13:52:47.512Z,10.90
2019-02-19T13:55:23.991Z,10.90
2019-02-19T13:57:57.293Z,10.70
2019-02-19T14:00:28.879Z,10.80
2019-02-19T14:02:59.822Z,10.70
2019-02-19T14:05:30.255Z,10.60
2019-02-19T14:08:00.671Z,10.60
2019-02-19T14:10:33.843Z,10.60
2019-02-19T14:13:04.506Z,10.60
2019-02-19T14:16:06.363Z,10.70
2019-02-19T14:19:08.730Z,10.80
2019-02-19T14:22:10.435Z,10.80
2019-02-19T14:25:08.056Z,10.80
2019-02-19T14:28:02.382Z,10.90
2019-02-19T14:30:48.093Z,11.30
2019-02-19T14:33:30.368Z,11.30
2019-02-19T14:36:18.387Z,11.50
2019-02-19T14:38:55.996Z,11.30
2019-02-19T14:41:48.649Z,11.40
2019-02-19T14:44:36.851Z,11.60
2019-02-19T14:47:26.272Z,11.70
2019-02-19T14:50:04.872Z,11.70
2019-02-19T14:52:54.385Z,11.70
2019-02-19T14:55:46.635Z,11.70
2019-02-19T14:58:51.223Z,11.60
2019-02-19T15:01:44.436Z,11.60
2019-02-19T15:04:52.263Z,11.30
2019-02-19T15:07:47.608Z,10.80
2019-02-19T15:10:36.663Z,10.70
2019-02-19T15:13:32.583Z,10.60
2019-02-19T15:16:24.952Z,10.30
2019-02-19T15:19:19.751Z,10.10
2019-02-19T15:22:11.562Z,9.90
2019-02-19T15:25:04.301Z,9.70
2019-02-19T15:27:45.848Z,9.80
2019-02-19T15:30:27.147Z,9.70
2019-02-19T15:33:13.639Z,9.60
2019-02-19T15:36:01.689Z,9.60
2019-02-19T15:38:54.387Z,9.60
2019-02-19T15:41:34.187Z,9.60
2019-02-19T15:44:15.555Z,9.50
2019-02-19T15:47:05.654Z,9.40
2019-02-19T15:50:04.195Z,9.50
2019-02-19T15:53:04.640Z,9.40
2019-02-19T15:55:53.000Z,9.40
2019-02-19T15:58:38.665Z,9.30
2019-02-19T16:01:26.813Z,9.40
2019-02-19T16:04:12.695Z,9.40
2019-02-19T16:06:59.183Z,9.30
2019-02-19T16:09:39.664Z,9.20
2019-02-19T16:12:33.365Z,9.20
2019-02-19T16:15:23.299Z,9.20
2019-02-19T16:18:04.507Z,9.10
2019-02-19T16:20:44.190Z,9.00
2019-02-19T16:23:34.217Z,9.00
2019-02-19T16:26:25.404Z,9.00
2019-02-19T16:29:13.807Z,8.90
2019-02-19T16:31:56.696Z,8.80
2019-02-19T16:34:46.137Z,8.90
2019-02-19T16:37:23.958Z,8.70
2019-02-19T16:40:36.765Z,8.70
2019-02-19T16:43:15.183Z,8.60
2019-02-19T16:45:57.898Z,8.50
2019-02-19T16:48:55.654Z,8.50
2019-02-19T16:51:57.175Z,8.50
2019-02-19T16:54:52.831Z,8.40
2019-02-19T16:57:32.030Z,8.40
2019-02-19T17:00:10.155Z,8.40
2019-02-19T17:02:51.688Z,8.30
2019-02-19T17:05:38.238Z,8.20
2019-02-19T17:08:19.122Z,8.20
2019-02-19T17:11:14.481Z,8.10
2019-02-19T17:13:58.248Z,8.20
2019-02-19T17:16:45.749Z,8.10
2019-02-19T17:19:41.264Z,8.10
2019-02-19T17:22:18.713Z,8.10
2019-02-19T17:25:06.776Z,8.00
2019-02-19T17:27:58.160Z,8.00
2019-02-19T17:30:44.423Z,8.10
2019-02-19T17:33:36.123Z,8.00
2019-02-19T17:36:24.380Z,8.10
2019-02-19T17:39:12.548Z,8.00
2019-02-19T17:41:48.103Z,8.00
2019-02-19T17:44:24.998Z,8.00
2019-02-19T17:47:14.520Z,8.00
2019-02-19T17:50:07.420Z,7.90
2019-02-19T17:52:55.556Z,8.00
2019-02-19T17:55:47.952Z,8.00
2019-02-19T17:59:18.414Z,8.00
2019-02-19T18:02:12.025Z,8.00
2019-02-19T18:04:51.921Z,8.00
2019-02-19T18:07:37.576Z,8.00
2019-02-19T18:10:30.704Z,8.00
2019-02-19T18:13:36.039Z,8.00
2019-02-19T18:16:36.164Z,8.00
2019-02-19T18:19:09.736Z,8.00
2019-02-19T18:21:41.863Z,8.00
2019-02-19T18:24:12.467Z,8.00
2019-02-19T18:26:44.775Z,7.90
2019-02-19T18:29:16.904Z,7.90
2019-02-19T18:31:47.315Z,7.90
2019-02-19T18:34:18.650Z,7.90
2019-02-19T18:36:49.055Z,7.80
2019-02-19T18:39:22.865Z,7.80
2019-02-19T18:42:03.408Z,7.80
2019-02-19T18:44:41.998Z,7.80
2019-02-19T18:47:30.787Z,7.80
2019-02-19T18:50:05.987Z,7.70
2019-02-19T18:52:36.367Z,7.70
2019-02-19T18:55:08.161Z,7.70
2019-02-19T18:57:38.568Z,7.70
2019-02-19T19:00:11.641Z,7.70
2019-02-19T19:02:43.076Z,7.70
2019-02-19T19:05:14.270Z,7.60
2019-02-19T19:07:44.684Z,7.60
2019-02-19T19:10:15.203Z,7.60
2019-02-19T19:12:45.580Z,7.60
2019-02-19T19:15:16.351Z,7.60
2019-02-19T19:17:47.428Z,7.60
2019-02-19T19:20:17.927Z,7.60
2019-02-19T19:22:48.393Z,7.60
2019-02-19T19:25:18.715Z,7.60
2019-02-19T19:27:49.161Z,7.60
2019-02-19T19:30:19.591Z,7.60
2019-02-19T19:32:49.963Z,7.60
2019-02-19T19:35:20.407Z,7.60
2019-02-19T19:37:50.971Z,7.60
2019-02-19T19:40:21.319Z,7.60
2019-02-19T19:42:51.723Z,7.60
2019-02-19T19:45:22.083Z,7.60
2019-02-19T19:47:52.500Z,7.60
2019-02-19T19:50:22.884Z,7.60
2019-02-19T19:52:53.225Z,7.60
2019-02-19T19:55:24.280Z,7.60
2019-02-19T19:57:54.614Z,7.60
2019-02-19T20:00:25.100Z,7.50
2019-02-19T20:02:55.625Z,7.50
2019-02-19T20:05:26.079Z,7.50
2019-02-19T20:07:56.956Z,7.50
2019-02-19T20:10:27.381Z,7.50
2019-02-19T20:12:57.941Z,7.40
2019-02-19T20:15:29.241Z,7.40
2019-02-19T20:18:00.544Z,7.40
2019-02-19T20:20:30.902Z,7.40
2019-02-19T20:23:01.248Z,7.40
2019-02-19T20:25:34.235Z,7.40
2019-02-19T20:28:04.650Z,7.30
2019-02-19T20:30:35.097Z,7.30
2019-02-19T20:33:05.508Z,7.30
2019-02-19T20:35:35.800Z,7.30
2019-02-19T20:38:06.225Z,7.20
2019-02-19T20:40:36.603Z,7.20
2019-02-19T20:43:07.056Z,7.20
2019-02-19T20:45:37.500Z,7.10
2019-02-19T20:48:08.542Z,7.10
2019-02-19T20:50:39.201Z,7.10
2019-02-19T20:53:09.549Z,7.10
2019-02-19T20:55:39.984Z,7.10
2019-02-19T20:58:12.293Z,7.10
2019-02-19T21:00:42.621Z,7.10
2019-02-19T21:03:13.024Z,7.10
2019-02-19T21:05:45.255Z,7.10
2019-02-19T21:08:15.631Z,7.20
2019-02-19T21:10:46.639Z,7.20
2019-02-19T21:13:17.158Z,7.20
2019-02-19T21:15:47.579Z,7.30
2019-02-19T21:18:18.411Z,7.30
2019-02-19T21:20:48.752Z,7.30
2019-02-19T21:23:19.167Z,7.30
2019-02-19T21:25:52.328Z,7.30
2019-02-19T21:28:22.641Z,7.30
2019-02-19T21:30:53.715Z,7.30
2019-02-19T21:33:24.143Z,7.30
2019-02-19T21:35:57.928Z,7.30
2019-02-19T21:38:26.766Z,7.30
2019-02-19T21:40:57.237Z,7.30
2019-02-19T21:43:27.682Z,7.30
2019-02-19T21:45:58.878Z,7.30
2019-02-19T21:48:29.269Z,7.40
2019-02-19T21:50:59.548Z,7.40
2019-02-19T21:53:30.776Z,7.40
2019-02-19T21:56:01.193Z,7.40
2019-02-19T21:58:31.550Z,7.40
2019-02-19T22:01:01.996Z,7.40
2019-02-19T22:03:32.485Z,7.50
2019-02-19T22:06:02.954Z,7.50
2019-02-19T22:08:33.450Z,7.50
2019-02-19T22:11:03.874Z,7.50
2019-02-19T22:13:34.240Z,7.50
2019-02-19T22:16:05.641Z,7.50
2019-02-19T22:18:37.792Z,7.40
2019-02-19T22:21:13.730Z,7.40
2019-02-19T22:23:44.320Z,7.50
2019-02-19T22:26:14.918Z,7.50
2019-02-19T22:28:45.373Z,7.50
2019-02-19T22:31:15.739Z,7.40
2019-02-19T22:33:46.096Z,7.50
2019-02-19T22:36:17.447Z,7.40
2019-02-19T22:38:47.817Z,7.40
2019-02-19T22:41:19.150Z,7.40
2019-02-19T22:43:49.507Z,7.40
2019-02-19T22:46:20.118Z,7.40
2019-02-19T22:48:51.528Z,7.40
2019-02-19T22:51:21.871Z,7.40
2019-02-19T22:54:06.576Z,7.40
2019-02-19T22:56:39.893Z,7.40
2019-02-19T22:59:10.380Z,7.40
2019-02-19T23:01:45.781Z,7.40
2019-02-19T23:04:16.219Z,7.40
2019-02-19T23:06:49.561Z,7.40
2019-02-19T23:10:10.967Z,7.40
2019-02-19T23:12:59.346Z,7.40
2019-02-19T23:15:29.792Z,7.40
2019-02-19T23:18:00.241Z,7.40
2019-02-19T23:20:31.224Z,7.40
2019-02-19T23:23:02.140Z,7.50
2019-02-19T23:25:32.493Z,7.50
2019-02-19T23:28:02.891Z,7.50
2019-02-19T23:30:33.786Z,7.50
2019-02-19T23:33:05.325Z,7.50
2019-02-19T23:35:39.865Z,7.50
2019-02-19T23:38:11.212Z,7.50
2019-02-19T23:40:42.112Z,7.50
2019-02-19T23:43:12.511Z,7.50
2019-02-19T23:45:43.226Z,7.50
2019-02-19T23:48:14.519Z,7.50
2019-02-19T23:50:45.603Z,7.50
2019-02-19T23:53:15.981Z,7.50
2019-02-19T23:55:46.409Z,7.50
2019-02-19T23:58:16.755Z,7.50
